Time;durP1;ratioP1;P1;durP2;ratioP2;P2;SDS_P1;SDS_P2;PMS_P1;PMS_P2;Temp;Humidity;BMP_temperature;BMP_pressure;BME280_temperature;BME280_humidity;BME280_pressure;Samples;Min_cycle;Max_cycle;Signal;HPM_P1;HPM_P2
2022/05/22 00:00:34;;;;;;;9.53;5.28;;;25.50;99.90;;;;;;1887172;76;21088;-87
2022/05/22 00:03:08;;;;;;;11.20;5.22;;;25.50;99.90;;;;;;1884910;74;21654;-87
2022/05/22 00:05:38;;;;;;;9.45;5.55;;;25.60;99.90;;;;;;1895190;75;21131;-88
2022/05/22 00:08:09;;;;;;;10.80;5.28;;;25.60;99.90;;;;;;1879195;73;21063;-87
2022/05/22 00:10:40;;;;;;;8.85;5.67;;;25.60;99.90;;;;;;1886987;73;21120;-89
2022/05/22 00:13:11;;;;;;;9.58;5.53;;;25.60;99.90;;;;;;1879980;73;21151;-87
2022/05/22 00:16:36;;;;;;;9.63;5.37;;;25.60;99.90;;;;;;1895932;72;21047;-87
2022/05/22 00:18:14;;;;;;;8.43;5.30;;;25.70;99.90;;;;;;1888278;73;21082;-88
2022/05/22 00:20:45;;;;;;;9.30;5.90;;;25.80;99.90;;;;;;1878182;76;21114;-86
2022/05/22 00:23:16;;;;;;;12.60;6.05;;;25.80;99.90;;;;;;1899030;74;21166;-86
2022/05/22 00:25:49;;;;;;;10.28;5.17;;;25.80;99.90;;;;;;1886219;75;21204;-88
2022/05/22 00:28:20;;;;;;;12.47;4.97;;;25.80;99.90;;;;;;1901290;74;21168;-87
2022/05/22 00:30:52;;;;;;;8.18;5.03;;;25.90;99.90;;;;;;1880184;75;21185;-87
2022/05/22 00:33:24;;;;;;;10.13;5.10;;;25.90;99.90;;;;;;1886828;74;21181;-87
2022/05/22 00:35:55;;;;;;;7.45;5.08;;;26.00;99.90;;;;;;1858805;76;21103;-88
2022/05/22 00:38:27;;;;;;;9.70;5.22;;;26.00;99.90;;;;;;1848496;76;21084;-88
2022/05/22 00:41:01;;;;;;;9.20;5.33;;;26.10;99.90;;;;;;1848844;76;21165;-87
2022/05/22 00:43:36;;;;;;;8.88;4.60;;;26.10;99.90;;;;;;1861608;76;21244;-88
2022/05/22 00:46:14;;;;;;;14.75;4.90;;;26.10;99.90;;;;;;1874140;75;21087;-88
2022/05/22 00:48:47;;;;;;;8.55;4.40;;;26.10;99.90;;;;;;1845351;75;21143;-88
2022/05/22 00:51:19;;;;;;;8.80;4.47;;;26.20;99.90;;;;;;1840834;77;21252;-88
2022/05/22 00:53:57;;;;;;;9.58;4.40;;;26.20;99.90;;;;;;1862697;76;21284;-88
2022/05/22 00:56:27;;;;;;;9.53;4.65;;;26.20;99.90;;;;;;1824840;77;21160;-88
2022/05/22 00:58:58;;;;;;;6.92;3.92;;;26.20;99.90;;;;;;1817085;77;21157;-88
2022/05/22 01:01:29;;;;;;;8.85;4.95;;;26.30;99.90;;;;;;1891076;74;21217;-88
2022/05/22 01:04:02;;;;;;;9.58;4.03;;;26.30;99.90;;;;;;1888653;74;21143;-88
2022/05/22 01:06:33;;;;;;;10.23;4.60;;;26.30;99.90;;;;;;1891932;74;21201;-88
2022/05/22 01:09:04;;;;;;;8.00;4.53;;;26.30;99.90;;;;;;1890334;74;21129;-89
2022/05/22 01:11:37;;;;;;;6.62;3.67;;;26.40;99.90;;;;;;1823022;77;21151;-88
2022/05/22 01:14:10;;;;;;;10.03;3.80;;;26.40;99.90;;;;;;1854005;75;21139;-88
2022/05/22 01:16:43;;;;;;;9.48;4.20;;;26.40;99.90;;;;;;1847056;76;21217;-88
2022/05/22 01:19:16;;;;;;;8.20;4.22;;;26.40;99.90;;;;;;1822671;77;21352;-88
2022/05/22 01:21:50;;;;;;;7.12;4.33;;;26.40;99.90;;;;;;1841748;76;21192;-87
2022/05/22 01:24:22;;;;;;;11.15;4.50;;;26.40;99.90;;;;;;1814946;77;21148;-88
2022/05/22 01:26:55;;;;;;;8.23;4.35;;;26.40;99.90;;;;;;1852846;76;21094;-88
2022/05/22 01:29:26;;;;;;;9.25;4.33;;;26.40;99.90;;;;;;1846274;76;21807;-88
2022/05/22 01:31:56;;;;;;;11.50;4.40;;;26.40;99.90;;;;;;1850557;76;21135;-85
2022/05/22 01:34:28;;;;;;;7.80;4.35;;;26.40;99.90;;;;;;1854267;76;21135;-87
2022/05/22 01:36:59;;;;;;;8.48;4.25;;;26.50;99.90;;;;;;1845608;76;21122;-89
2022/05/22 01:39:30;;;;;;;7.40;4.20;;;26.60;99.90;;;;;;1870541;76;21122;-88
2022/05/22 01:42:01;;;;;;;8.85;4.37;;;26.70;99.90;;;;;;1903081;74;21201;-89
2022/05/22 01:44:32;;;;;;;8.45;4.40;;;26.80;99.90;;;;;;1903266;74;21456;-87
2022/05/22 01:47:03;;;;;;;9.68;4.25;;;26.80;99.90;;;;;;1902858;74;21067;-87
2022/05/22 01:49:34;;;;;;;11.15;4.90;;;26.80;99.90;;;;;;1881273;74;21071;-88
2022/05/22 01:52:05;;;;;;;12.10;4.42;;;26.90;99.90;;;;;;1890110;74;21648;-88
2022/05/22 01:54:36;;;;;;;7.92;4.08;;;26.80;99.90;;;;;;1909587;74;21169;-88
2022/05/22 01:57:08;;;;;;;9.15;4.62;;;26.80;99.90;;;;;;1894973;74;21170;-90
2022/05/22 01:59:43;;;;;;;15.50;4.80;;;26.80;99.90;;;;;;1884265;74;21255;-88
2022/05/22 02:02:15;;;;;;;11.80;4.70;;;26.70;99.90;;;;;;1898825;74;21088;-88
2022/05/22 02:04:46;;;;;;;8.63;4.75;;;26.70;99.90;;;;;;1903845;74;21127;-89
2022/05/22 02:09:50;;;;;;;15.10;4.62;;;26.60;99.90;;;;;;1897097;74;21127;-89
2022/05/22 02:12:21;;;;;;;9.08;5.00;;;26.50;99.90;;;;;;1900083;74;21580;-90
2022/05/22 02:14:54;;;;;;;9.95;4.53;;;26.60;99.90;;;;;;1887156;74;21137;-89
2022/05/22 02:17:28;;;;;;;7.08;4.60;;;26.60;99.90;;;;;;1890022;74;21164;-89
2022/05/22 02:20:00;;;;;;;8.80;4.65;;;26.50;99.90;;;;;;1862157;75;21074;-89
2022/05/22 02:22:45;;;;;;;12.07;4.70;;;26.50;99.90;;;;;;1843971;76;21171;-88
2022/05/22 02:25:19;;;;;;;7.03;4.67;;;26.50;99.90;;;;;;1855760;75;21084;-89
2022/05/22 02:27:55;;;;;;;;;;;26.40;99.90;;;;;;1862394;75;21108;-89
2022/05/22 02:30:28;;;;;;;10.68;4.92;;;26.40;99.90;;;;;;1860729;75;20515;-88
2022/05/22 02:33:00;;;;;;;9.13;6.00;;;26.40;99.90;;;;;;1857974;75;21202;-89
2022/05/22 02:35:38;;;;;;;13.00;5.40;;;26.50;99.90;;;;;;1855075;75;21214;-88
2022/05/22 02:38:10;;;;;;;11.95;5.28;;;26.50;99.90;;;;;;1881549;74;21131;-87
2022/05/22 02:40:42;;;;;;;6.83;4.30;;;26.50;99.90;;;;;;1887579;74;21145;-88
2022/05/22 02:43:18;;;;;;;9.40;4.83;;;26.60;99.90;;;;;;1882419;74;21139;-88
2022/05/22 02:45:47;;;;;;;10.58;5.17;;;26.60;99.90;;;;;;1888888;74;21206;-89
2022/05/22 02:48:20;;;;;;;7.90;5.00;;;26.70;99.90;;;;;;1890717;74;21665;-88
2022/05/22 02:50:51;;;;;;;10.48;4.67;;;26.70;99.90;;;;;;1889100;74;21096;-89
2022/05/22 02:53:22;;;;;;;9.38;5.12;;;26.80;99.90;;;;;;1887790;74;21156;-89
2022/05/22 02:55:53;;;;;;;10.70;5.55;;;26.80;99.90;;;;;;1900160;74;21103;-87
2022/05/22 02:58:24;;;;;;;10.25;5.15;;;26.80;99.90;;;;;;1891295;74;21141;-88
2022/05/22 03:01:01;;;;;;;10.68;4.95;;;26.80;99.90;;;;;;1893969;74;21632;-91
2022/05/22 03:03:28;;;;;;;13.18;5.00;;;26.80;99.90;;;;;;1882490;74;21084;-89
2022/05/22 03:08:34;;;;;;;8.58;5.08;;;26.80;99.90;;;;;;1885363;74;21121;-89
2022/05/22 03:11:08;;;;;;;13.50;6.15;;;26.70;99.90;;;;;;1889008;74;21565;-88
2022/05/22 03:13:40;;;;;;;10.30;5.30;;;26.70;99.90;;;;;;1889841;74;21161;-88
2022/05/22 03:16:16;;;;;;;10.63;5.37;;;26.60;99.90;;;;;;1898936;74;21118;-90
2022/05/22 03:18:50;;;;;;;14.47;7.30;;;26.70;99.90;;;;;;1887497;74;21171;-89
2022/05/22 03:21:29;;;;;;;13.58;6.78;;;26.70;99.90;;;;;;1912876;74;21143;-89
2022/05/22 03:24:00;;;;;;;13.72;6.47;;;26.70;99.90;;;;;;1893495;74;21182;-89
2022/05/22 03:26:45;;;;;;;10.32;6.20;;;26.70;99.90;;;;;;1887046;74;21264;-89
2022/05/22 03:29:07;;;;;;;14.38;7.37;;;26.70;99.90;;;;;;1889349;74;21172;-88
2022/05/22 03:31:38;;;;;;;10.60;7.67;;;26.80;99.90;;;;;;1884509;74;21098;-89
2022/05/22 03:34:09;;;;;;;14.33;7.65;;;26.70;99.90;;;;;;1912231;74;21484;-89
2022/05/22 03:36:40;;;;;;;12.65;7.47;;;26.70;99.90;;;;;;1906270;74;21248;-89
2022/05/22 03:39:12;;;;;;;15.28;7.15;;;26.70;99.90;;;;;;1904572;74;21125;-89
2022/05/22 03:41:48;;;;;;;14.38;8.03;;;26.70;99.90;;;;;;1893827;75;21070;-89
2022/05/22 03:44:20;;;;;;;12.73;7.50;;;26.70;99.90;;;;;;1882577;75;21256;-91
2022/05/22 03:46:51;;;;;;;11.10;6.40;;;26.80;99.90;;;;;;1889186;75;21130;-88
2022/05/22 03:49:23;;;;;;;12.13;7.00;;;26.80;99.90;;;;;;1893794;74;21095;-90
2022/05/22 03:51:54;;;;;;;13.85;6.80;;;26.80;99.90;;;;;;1893390;75;21585;-87
2022/05/22 03:54:25;;;;;;;12.47;7.03;;;26.80;99.90;;;;;;1888866;75;21059;-88
2022/05/22 03:56:57;;;;;;;12.30;7.17;;;26.80;99.90;;;;;;1890638;74;21208;-89
2022/05/22 03:59:30;;;;;;;11.18;7.30;;;26.90;99.90;;;;;;1897430;74;21130;-88
2022/05/22 04:02:00;;;;;;;14.55;7.42;;;26.90;99.90;;;;;;1899943;74;21122;-88
2022/05/22 04:04:32;;;;;;;11.28;7.15;;;27.00;99.90;;;;;;1915285;74;21256;-89
2022/05/22 04:07:04;;;;;;;15.78;6.83;;;27.10;99.90;;;;;;1902057;74;21095;-89
2022/05/22 04:09:35;;;;;;;11.68;6.03;;;27.20;99.90;;;;;;1903991;74;21115;-88
2022/05/22 04:12:08;;;;;;;9.90;5.78;;;27.30;99.90;;;;;;1908967;75;21557;-91
2022/05/22 04:14:40;;;;;;;11.00;6.20;;;27.30;99.90;;;;;;1896970;74;21809;-88
2022/05/22 04:17:11;;;;;;;10.93;5.47;;;27.40;99.90;;;;;;1898144;75;21134;-89
2022/05/22 04:19:42;;;;;;;8.73;5.37;;;27.40;99.90;;;;;;1902501;74;21247;-90
2022/05/22 04:22:13;;;;;;;13.40;5.58;;;27.50;99.90;;;;;;1914593;74;21098;-89
2022/05/22 04:27:18;;;;;;;9.18;5.47;;;27.50;99.90;;;;;;1901119;74;21120;-89
2022/05/22 04:29:49;;;;;;;9.43;5.53;;;27.50;99.90;;;;;;1900409;74;21153;-89
2022/05/22 04:32:20;;;;;;;10.38;6.12;;;27.60;99.90;;;;;;1895009;75;21223;-89
2022/05/22 04:34:51;;;;;;;10.58;5.60;;;27.60;99.90;;;;;;1889046;74;21087;-89
2022/05/22 04:37:22;;;;;;;10.93;5.85;;;27.60;99.90;;;;;;1893906;75;21028;-89
2022/05/22 04:39:53;;;;;;;11.75;6.08;;;27.60;99.90;;;;;;1901344;74;21864;-90
2022/05/22 04:42:24;;;;;;;9.33;6.20;;;27.60;99.90;;;;;;1904242;74;21203;-90
2022/05/22 04:44:55;;;;;;;12.40;5.45;;;27.70;99.90;;;;;;1897965;74;21119;-89
2022/05/22 04:47:28;;;;;;;11.53;5.40;;;27.70;99.90;;;;;;1893123;75;21127;-89
2022/05/22 04:50:03;;;;;;;10.48;5.35;;;27.80;99.90;;;;;;1897525;74;21248;-88
2022/05/22 04:52:34;;;;;;;13.85;5.30;;;27.80;99.90;;;;;;1889115;75;21165;-87
2022/05/22 04:55:07;;;;;;;10.03;5.08;;;27.80;99.90;;;;;;1888390;75;21084;-88
2022/05/22 04:57:38;;;;;;;12.03;5.30;;;27.90;99.90;;;;;;1888788;75;21280;-89
2022/05/22 05:00:12;;;;;;;15.72;5.30;;;27.90;99.90;;;;;;1888430;75;21786;-88
2022/05/22 05:02:43;;;;;;;9.50;5.33;;;27.90;99.90;;;;;;1888807;75;21056;-88
2022/05/22 05:05:15;;;;;;;11.20;4.80;;;28.00;99.90;;;;;;1894025;75;21881;-89
2022/05/22 05:07:45;;;;;;;8.08;4.95;;;28.10;99.90;;;;;;1893760;75;21145;-88
2022/05/22 05:10:16;;;;;;;9.05;4.87;;;28.20;99.90;;;;;;1885614;75;21132;-89
2022/05/22 05:12:48;;;;;;;11.12;5.55;;;28.20;99.90;;;;;;1883516;75;21153;-89
2022/05/22 05:15:21;;;;;;;9.20;4.42;;;28.30;99.90;;;;;;1886759;72;21114;-86
2022/05/22 05:17:52;;;;;;;8.70;4.78;;;28.30;99.90;;;;;;1894308;72;21131;-89
2022/05/22 05:20:25;;;;;;;9.30;4.97;;;28.30;99.90;;;;;;1891932;72;21148;-89
2022/05/22 05:22:55;;;;;;;9.98;5.40;;;28.30;99.90;;;;;;1896125;72;21034;-87
2022/05/22 05:25:26;;;;;;;14.35;5.45;;;28.20;99.90;;;;;;1888409;72;21196;-89
2022/05/22 05:27:58;;;;;;;10.75;5.42;;;28.20;99.90;;;;;;1887672;72;21393;-89
2022/05/22 05:30:29;;;;;;;9.95;5.20;;;28.10;99.90;;;;;;1879149;73;21050;-91
2022/05/22 05:33:00;;;;;;;9.23;5.17;;;28.10;99.90;;;;;;1886054;72;21055;-89
2022/05/22 05:35:31;;;;;;;10.23;4.95;;;28.00;99.90;;;;;;1886657;72;21135;-88
2022/05/22 05:38:02;;;;;;;10.72;5.00;;;28.00;99.90;;;;;;1893406;71;21171;-89
2022/05/22 05:40:33;;;;;;;12.15;5.20;;;28.00;99.90;;;;;;1898969;73;21121;-89
2022/05/22 05:43:05;;;;;;;12.23;5.25;;;27.90;99.90;;;;;;1904774;71;21278;-88
2022/05/22 05:45:36;;;;;;;12.23;5.97;;;27.90;99.90;;;;;;1900642;71;21072;-90
2022/05/22 05:48:07;;;;;;;11.93;5.20;;;27.90;99.90;;;;;;1899838;74;21079;-88
2022/05/22 05:50:38;;;;;;;9.28;4.92;;;27.90;99.90;;;;;;1898323;74;21061;-90
2022/05/22 05:53:10;;;;;;;13.58;4.72;;;27.90;99.90;;;;;;1899657;74;21196;-89
2022/05/22 05:55:41;;;;;;;11.48;5.03;;;27.90;99.90;;;;;;1896328;74;21076;-88
2022/05/22 05:58:14;;;;;;;12.28;4.62;;;27.90;99.90;;;;;;1892513;74;21126;-88
2022/05/22 06:00:46;;;;;;;11.60;4.72;;;27.90;99.90;;;;;;1894613;73;21137;-87
2022/05/22 06:03:17;;;;;;;11.93;6.12;;;27.90;99.90;;;;;;1895512;74;21123;-89
2022/05/22 06:05:48;;;;;;;9.65;4.83;;;27.90;99.90;;;;;;1896833;74;21184;-88
2022/05/22 06:08:19;;;;;;;9.68;5.22;;;27.90;99.90;;;;;;1900944;74;21192;-90
2022/05/22 06:10:53;;;;;;;7.60;5.25;;;27.90;99.90;;;;;;1893000;74;21118;-89
2022/05/22 06:13:23;;;;;;;11.63;5.67;;;28.00;99.90;;;;;;1894402;74;21111;-89
2022/05/22 06:16:04;;;;;;;13.32;5.08;;;28.00;99.90;;;;;;1886957;74;21082;-91
2022/05/22 06:18:36;;;;;;;12.13;4.90;;;28.00;99.90;;;;;;1896341;74;21239;-90
2022/05/22 06:21:09;;;;;;;11.12;6.03;;;28.00;99.90;;;;;;1850072;75;21644;-90
2022/05/22 06:23:40;;;;;;;16.07;5.47;;;28.00;99.90;;;;;;1909403;74;21141;-90
2022/05/22 06:26:14;;;;;;;12.60;5.80;;;28.10;99.90;;;;;;1903323;74;21031;-89
2022/05/22 06:28:45;;;;;;;10.10;5.70;;;28.10;99.90;;;;;;1907525;74;21561;-90
2022/05/22 06:31:17;;;;;;;11.63;5.30;;;28.20;99.90;;;;;;1903194;74;21118;-91
2022/05/22 06:33:48;;;;;;;12.10;5.37;;;28.30;99.90;;;;;;1903124;74;21149;-90
2022/05/22 06:36:19;;;;;;;10.00;5.50;;;28.30;99.90;;;;;;1905569;74;21532;-90
2022/05/22 06:41:26;;;;;;;12.85;6.15;;;28.40;99.90;;;;;;1876122;74;21141;-90
2022/05/22 06:43:57;;;;;;;11.75;4.95;;;28.40;99.90;;;;;;1825788;77;21082;-90
2022/05/22 06:46:33;;;;;;;15.95;6.30;;;28.40;99.90;;;;;;1879047;75;21121;-87
2022/05/22 06:49:12;;;;;;;8.68;5.37;;;28.40;99.90;;;;;;1880892;74;21214;-89
2022/05/22 06:51:47;;;;;;;11.55;5.60;;;28.40;99.90;;;;;;1885500;74;21494;-87
2022/05/22 06:54:19;;;;;;;9.33;5.05;;;28.50;99.90;;;;;;1898982;74;21151;-87
2022/05/22 06:56:50;;;;;;;8.70;5.40;;;28.60;99.90;;;;;;1899938;74;21415;-88
2022/05/22 06:59:21;;;;;;;10.53;5.20;;;28.60;99.90;;;;;;1894922;74;21115;-90
2022/05/22 07:01:52;;;;;;;8.18;5.03;;;28.70;99.90;;;;;;1900715;74;21189;-90
2022/05/22 07:04:25;;;;;;;11.93;4.78;;;28.70;99.90;;;;;;1886776;75;21732;-90
2022/05/22 07:07:00;;;;;;;9.68;5.00;;;28.70;99.90;;;;;;1876649;75;21197;-90
2022/05/22 07:09:35;;;;;;;8.15;5.17;;;28.70;99.90;;;;;;1886116;75;21865;-89
2022/05/22 07:12:10;;;;;;;10.63;5.60;;;28.80;99.90;;;;;;1870958;74;21135;-89
2022/05/22 07:15:00;;;;;;;7.55;4.78;;;28.80;99.90;;;;;;1840308;76;21169;-90
2022/05/22 07:17:58;;;;;;;10.72;5.20;;;28.80;99.90;;;;;;1879092;74;21133;-90
2022/05/22 07:20:30;;;;;;;10.48;5.10;;;28.80;99.90;;;;;;1902672;74;21234;-90
2022/05/22 07:23:00;;;;;;;11.35;5.67;;;28.90;99.90;;;;;;1864607;76;21143;-88
2022/05/22 07:25:33;;;;;;;11.08;5.12;;;28.90;99.90;;;;;;1860365;76;21461;-89
2022/05/22 07:28:04;;;;;;;10.20;5.20;;;29.00;99.90;;;;;;1844025;76;21225;-88
2022/05/22 07:30:38;;;;;;;12.13;5.47;;;29.00;99.90;;;;;;1863362;76;21135;-89
2022/05/22 07:33:10;;;;;;;11.70;5.47;;;29.00;99.90;;;;;;1853141;76;21197;-88
2022/05/22 07:35:41;;;;;;;11.93;5.55;;;29.00;99.90;;;;;;1853173;76;21190;-90
2022/05/22 07:38:12;;;;;;;9.98;5.22;;;29.00;99.90;;;;;;1852340;76;21244;-91
2022/05/22 07:40:43;;;;;;;9.95;5.28;;;29.00;99.90;;;;;;1843423;76;21192;-89
2022/05/22 07:43:18;;;;;;;10.05;5.17;;;29.00;99.90;;;;;;1785087;79;21176;-88
2022/05/22 07:45:49;;;;;;;13.13;5.33;;;29.10;99.90;;;;;;1827236;77;21278;-88
2022/05/22 07:48:21;;;;;;;10.30;5.25;;;29.10;99.90;;;;;;1840751;77;21136;-89
2022/05/22 07:50:54;;;;;;;10.48;5.35;;;29.10;99.90;;;;;;1827808;77;21837;-89
2022/05/22 07:53:27;;;;;;;11.22;5.37;;;29.20;99.60;;;;;;1847344;77;21253;-88
2022/05/22 07:55:58;;;;;;;9.88;5.42;;;29.30;99.90;;;;;;1826223;77;21229;-89
2022/05/22 07:58:31;;;;;;;8.30;5.10;;;29.40;98.70;;;;;;1875659;76;21651;-89
2022/05/22 08:01:03;;;;;;;8.70;5.05;;;29.40;98.50;;;;;;1865015;76;21192;-89
2022/05/22 08:03:34;;;;;;;11.85;5.15;;;29.50;98.20;;;;;;1865050;76;21593;-89
2022/05/22 08:06:06;;;;;;;9.58;5.33;;;29.60;99.70;;;;;;1873069;76;21173;-90
2022/05/22 08:08:40;;;;;;;9.20;4.83;;;29.60;99.60;;;;;;1864577;76;21066;-90
2022/05/22 08:11:13;;;;;;;8.85;4.92;;;29.60;99.90;;;;;;1865223;76;21172;-90
2022/05/22 08:13:44;;;;;;;15.05;5.95;;;29.60;98.70;;;;;;1859235;76;21121;-90
2022/05/22 08:16:21;;;;;;;11.12;4.97;;;29.70;99.50;;;;;;1871422;76;21109;-90
2022/05/22 08:18:52;;;;;;;9.80;4.92;;;29.70;98.80;;;;;;1854087;75;21699;-90
2022/05/22 08:21:24;;;;;;;11.08;5.08;;;29.70;99.10;;;;;;1857254;76;21090;-91
2022/05/22 08:23:59;;;;;;;11.00;4.97;;;29.70;97.80;;;;;;1859615;75;21185;-89
2022/05/22 08:26:30;;;;;;;10.08;4.58;;;29.80;99.90;;;;;;1842959;77;21088;-89
2022/05/22 08:29:02;;;;;;;14.83;5.40;;;29.70;98.30;;;;;;1829530;77;21170;-89
2022/05/22 08:31:35;;;;;;;10.95;4.90;;;29.80;98.60;;;;;;1819459;77;21266;-89
2022/05/22 08:34:07;;;;;;;9.23;4.65;;;29.80;99.20;;;;;;1818568;77;21132;-88
2022/05/22 08:36:38;;;;;;;14.98;5.92;;;29.70;98.50;;;;;;1843730;77;21218;-87
2022/05/22 08:39:12;;;;;;;10.72;4.92;;;29.70;97.60;;;;;;1829744;77;21111;-88
2022/05/22 08:41:46;;;;;;;12.05;5.62;;;29.80;99.20;;;;;;1832066;77;21181;-89
2022/05/22 08:44:20;;;;;;;9.98;4.72;;;29.90;98.80;;;;;;1811498;77;21631;-88
2022/05/22 08:46:53;;;;;;;10.60;5.33;;;29.70;98.00;;;;;;1834263;77;21139;-89
2022/05/22 08:49:27;;;;;;;11.03;4.92;;;29.70;99.00;;;;;;1781695;78;21164;-88
2022/05/22 08:52:00;;;;;;;12.03;5.08;;;29.70;99.60;;;;;;1814402;78;21140;-91
2022/05/22 08:54:42;;;;;;;8.53;4.80;;;29.60;99.60;;;;;;1850393;77;21151;-89
2022/05/22 08:59:43;;;;;;;10.63;4.95;;;29.60;98.70;;;;;;1850073;76;21221;-89
2022/05/22 09:02:24;;;;;;;8.20;4.35;;;29.60;98.80;;;;;;1831590;77;21225;-90
2022/05/22 09:04:56;;;;;;;11.18;4.53;;;29.50;99.60;;;;;;1814127;78;21173;-91
2022/05/22 09:07:31;;;;;;;10.65;4.72;;;29.50;98.40;;;;;;1827487;77;21660;-90
2022/05/22 09:10:04;;;;;;;13.75;4.95;;;29.50;98.50;;;;;;1835110;77;21095;-89
2022/05/22 09:12:39;;;;;;;13.90;4.87;;;29.50;99.90;;;;;;1841944;77;21198;-87
2022/05/22 09:15:11;;;;;;;11.73;5.03;;;29.50;98.60;;;;;;1867185;73;21088;-87
2022/05/22 09:17:44;;;;;;;8.28;4.62;;;29.50;98.90;;;;;;1877132;73;21105;-88
2022/05/22 09:20:18;;;;;;;11.55;5.78;;;29.40;99.00;;;;;;1860629;73;21146;-90
2022/05/22 09:22:52;;;;;;;14.25;5.47;;;29.60;99.40;;;;;;1839496;77;21604;-90
2022/05/22 09:25:25;;;;;;;14.07;5.55;;;29.50;99.90;;;;;;1794176;78;21313;-91
2022/05/22 09:28:00;;;;;;;11.15;5.30;;;29.50;99.50;;;;;;1814303;79;21139;-90
2022/05/22 09:30:33;;;;;;;9.45;4.95;;;29.50;99.30;;;;;;1781137;78;21167;-91
2022/05/22 09:33:09;;;;;;;12.58;5.58;;;29.50;99.30;;;;;;1787532;80;21132;-89
2022/05/22 09:35:42;;;;;;;12.45;4.83;;;29.40;99.80;;;;;;1819364;79;21174;-91
2022/05/22 09:38:32;;;;;;;9.65;5.33;;;29.50;99.90;;;;;;1820906;77;21108;-90
2022/05/22 09:40:52;;;;;;;9.55;5.15;;;29.50;99.90;;;;;;1841153;76;21200;-90
2022/05/22 09:43:24;;;;;;;13.60;5.67;;;29.40;99.70;;;;;;1838211;76;21991;-90
2022/05/22 09:46:01;;;;;;;11.25;5.37;;;29.50;99.80;;;;;;1853885;76;21127;-89
2022/05/22 09:48:37;;;;;;;10.18;4.83;;;29.60;99.90;;;;;;1847992;76;21136;-90
2022/05/22 09:51:09;;;;;;;16.15;5.40;;;29.60;99.50;;;;;;1854677;76;21181;-89
2022/05/22 09:53:45;;;;;;;11.40;4.55;;;29.50;99.50;;;;;;1850330;76;21135;-90
2022/05/22 09:56:20;;;;;;;13.08;5.45;;;29.50;99.90;;;;;;1850364;76;21135;-90
2022/05/22 09:58:54;;;;;;;12.88;4.83;;;29.30;99.00;;;;;;1867516;76;21150;-92
2022/05/22 10:01:36;;;;;;;10.30;4.60;;;29.30;98.90;;;;;;1866983;76;21158;-92
2022/05/22 10:04:10;;;;;;;8.88;4.55;;;29.40;99.90;;;;;;1864510;75;21370;-92
2022/05/22 10:06:41;;;;;;;9.20;4.60;;;29.20;99.30;;;;;;1811332;77;21539;-91
2022/05/22 10:09:23;;;;;;;10.50;4.97;;;29.20;99.60;;;;;;1893430;76;21123;-93
2022/05/22 10:12:10;;;;;;;7.62;5.12;;;29.30;99.90;;;;;;1887650;74;21121;-92
2022/05/22 10:14:57;;;;;;;8.50;4.53;;;29.30;99.50;;;;;;1874737;75;21135;-92
2022/05/22 10:17:32;;;;;;;13.95;5.35;;;29.30;99.50;;;;;;1892989;75;21404;-90
2022/05/22 10:20:06;;;;;;;9.18;5.15;;;29.20;99.90;;;;;;1892929;76;21092;-94
2022/05/22 10:22:40;;;;;;;11.22;4.90;;;29.30;99.80;;;;;;1892031;74;21151;-90
2022/05/22 10:25:12;;;;;;;11.75;5.12;;;29.20;99.60;;;;;;1891714;76;21161;-92
2022/05/22 10:27:42;;;;;;;14.87;5.15;;;29.10;99.30;;;;;;1893457;75;21129;-92
2022/05/22 10:30:16;;;;;;;10.55;5.28;;;29.20;99.10;;;;;;1894292;76;21131;-91
2022/05/22 10:32:49;;;;;;;11.88;5.47;;;29.20;99.50;;;;;;1889364;74;21138;-91
2022/05/22 10:35:23;;;;;;;11.57;5.90;;;29.10;99.40;;;;;;1891908;76;21158;-90
2022/05/22 10:37:55;;;;;;;12.93;5.58;;;29.30;99.40;;;;;;1892893;74;21115;-93
2022/05/22 10:42:44;;;;;;;13.78;5.30;;;29.10;99.90;;;;;;1893534;75;21236;-91
2022/05/22 10:43:04;;;;;;;7.92;4.65;;;29.20;99.70;;;;;;1880331;76;21184;-90
2022/05/22 10:45:38;;;;;;;13.95;5.22;;;29.10;99.90;;;;;;1881651;76;21171;-92
2022/05/22 10:48:11;;;;;;;11.48;5.22;;;29.10;99.50;;;;;;1884239;73;21371;-91
2022/05/22 10:50:46;;;;;;;11.68;5.75;;;29.00;99.50;;;;;;1885566;73;21076;-90
2022/05/22 10:53:19;;;;;;;12.23;5.95;;;29.00;99.50;;;;;;1882531;73;21171;-90
2022/05/22 10:55:52;;;;;;;15.15;5.72;;;29.00;99.80;;;;;;1872942;73;21092;-93
2022/05/22 10:58:31;;;;;;;11.97;5.78;;;29.00;99.90;;;;;;1846661;75;21128;-90
2022/05/22 11:01:05;;;;;;;13.78;6.40;;;29.10;99.90;;;;;;1848960;75;21218;-90
2022/05/22 11:03:37;;;;;;;12.75;6.28;;;29.10;99.90;;;;;;1849802;78;21171;-92
2022/05/22 11:06:11;;;;;;;14.23;6.45;;;29.10;99.90;;;;;;1850454;76;21120;-91
2022/05/22 11:08:44;;;;;;;12.50;5.87;;;29.00;99.90;;;;;;1852172;76;21601;-93
2022/05/22 11:11:18;;;;;;;10.75;5.97;;;28.90;99.90;;;;;;1854291;77;21072;-89
2022/05/22 11:13:50;;;;;;;11.45;5.95;;;29.10;99.90;;;;;;1855652;77;21213;-91
2022/05/22 11:16:24;;;;;;;13.20;6.65;;;28.90;99.90;;;;;;1855146;76;21143;-90
2022/05/22 11:18:58;;;;;;;11.65;5.97;;;28.90;99.90;;;;;;1855387;77;21197;-94
2022/05/22 11:21:31;;;;;;;15.90;6.58;;;28.80;99.90;;;;;;1846761;74;21135;-92
2022/05/22 11:24:07;;;;;;;21.62;6.75;;;28.80;99.90;;;;;;1848442;77;21217;-92
2022/05/22 11:26:46;;;;;;;12.03;6.28;;;28.80;99.90;;;;;;1843618;76;21155;-92
2022/05/22 11:29:19;;;;;;;18.02;7.30;;;28.80;99.90;;;;;;1849050;76;21131;-91
2022/05/22 11:31:53;;;;;;;15.60;6.45;;;28.80;99.90;;;;;;1850349;76;21163;-89
2022/05/22 11:34:27;;;;;;;14.38;7.20;;;28.80;99.90;;;;;;1845919;76;21092;-90
2022/05/22 11:37:00;;;;;;;15.55;7.47;;;28.70;99.90;;;;;;1878389;76;21194;-92
2022/05/22 11:39:32;;;;;;;13.18;6.85;;;28.70;99.90;;;;;;1853722;76;21158;-92
2022/05/22 11:42:06;;;;;;;12.23;6.42;;;28.70;99.90;;;;;;1848239;76;21159;-90
2022/05/22 11:44:40;;;;;;;16.25;6.83;;;28.70;99.90;;;;;;1816242;78;21172;-90
2022/05/22 11:47:12;;;;;;;11.63;6.25;;;28.70;99.90;;;;;;1815447;78;21171;-89
2022/05/22 11:49:46;;;;;;;13.22;7.37;;;28.60;99.90;;;;;;1851294;77;21272;-91
2022/05/22 11:54:54;;;;;;;12.33;6.85;;;28.70;99.90;;;;;;1833492;74;21189;-90
2022/05/22 11:57:28;;;;;;;15.63;7.28;;;28.60;99.90;;;;;;1823778;75;21120;-89
2022/05/22 12:00:10;;;;;;;15.13;7.17;;;28.50;99.90;;;;;;1836687;75;21237;-89
2022/05/22 12:02:35;;;;;;;18.12;7.10;;;28.60;99.90;;;;;;1850870;75;21116;-90
2022/05/22 12:05:11;;;;;;;11.12;6.17;;;28.50;99.90;;;;;;1855020;75;21218;-91
2022/05/22 12:07:44;;;;;;;14.25;6.35;;;28.40;99.90;;;;;;1850791;75;21085;-90
2022/05/22 12:10:18;;;;;;;11.08;6.67;;;28.50;99.90;;;;;;1856355;74;21103;-90
2022/05/22 12:12:52;;;;;;;14.93;7.70;;;28.30;99.90;;;;;;1848688;75;21136;-91
2022/05/22 12:15:24;;;;;;;15.98;7.15;;;28.40;99.90;;;;;;1845851;74;21120;-90
2022/05/22 12:18:00;;;;;;;13.32;6.78;;;28.30;99.90;;;;;;1853549;74;21306;-88
2022/05/22 12:20:33;;;;;;;14.25;7.53;;;28.20;99.90;;;;;;1857064;74;21174;-90
2022/05/22 12:23:13;;;;;;;14.05;7.42;;;28.30;99.90;;;;;;1850565;74;21065;-90
2022/05/22 12:25:44;;;;;;;15.23;7.03;;;28.30;99.90;;;;;;1841333;74;21116;-89
2022/05/22 12:28:17;;;;;;;13.65;7.30;;;28.20;99.90;;;;;;1829352;75;21130;-90
2022/05/22 12:30:48;;;;;;;13.18;6.67;;;28.10;99.90;;;;;;1800817;76;21100;-89
2022/05/22 12:33:19;;;;;;;16.75;7.62;;;28.30;99.90;;;;;;1780627;75;21094;-91
2022/05/22 12:35:53;;;;;;;16.42;7.83;;;28.10;99.90;;;;;;1855427;74;21076;-91
2022/05/22 12:38:24;;;;;;;15.10;7.87;;;28.10;99.90;;;;;;1855368;74;21132;-91
2022/05/22 12:40:54;;;;;;;17.52;8.00;;;28.10;99.90;;;;;;1854727;74;21076;-90
2022/05/22 12:43:26;;;;;;;17.95;8.63;;;28.10;99.90;;;;;;1844606;75;21165;-91
2022/05/22 12:46:00;;;;;;;15.40;8.43;;;28.10;99.90;;;;;;1835330;77;21108;-90
2022/05/22 12:48:33;;;;;;;17.37;6.92;;;28.00;99.90;;;;;;1845518;76;21142;-92
2022/05/22 12:51:07;;;;;;;17.77;8.33;;;28.00;99.90;;;;;;1851453;76;21354;-93
2022/05/22 12:53:41;;;;;;;15.60;8.35;;;28.00;99.90;;;;;;1857833;76;21131;-91
2022/05/22 12:56:15;;;;;;;16.65;7.25;;;28.00;99.90;;;;;;1840200;76;21140;-90
2022/05/22 12:58:48;;;;;;;17.23;7.47;;;28.00;99.90;;;;;;1836312;76;21107;-92
2022/05/22 13:01:22;;;;;;;14.25;7.97;;;28.00;99.90;;;;;;1843581;76;21088;-91
2022/05/22 13:03:55;;;;;;;13.45;8.10;;;27.90;99.90;;;;;;1841151;76;21128;-90
2022/05/22 13:06:29;;;;;;;15.83;8.03;;;27.90;99.90;;;;;;1839498;76;21151;-91
2022/05/22 13:09:02;;;;;;;14.83;7.97;;;27.90;99.90;;;;;;1851059;75;21127;-92
2022/05/22 13:11:36;;;;;;;16.97;8.03;;;27.90;99.90;;;;;;1857775;76;21124;-91
2022/05/22 13:14:15;;;;;;;17.40;9.48;;;28.00;99.90;;;;;;1842523;75;21125;-90
2022/05/22 13:16:48;;;;;;;17.95;8.43;;;28.00;99.90;;;;;;1843083;76;21128;-90
2022/05/22 13:19:22;;;;;;;19.05;9.50;;;27.90;99.90;;;;;;1844257;76;21124;-90
2022/05/22 13:21:54;;;;;;;13.03;7.87;;;27.90;99.90;;;;;;1847058;76;21244;-89
2022/05/22 13:24:26;;;;;;;21.07;9.03;;;27.90;99.90;;;;;;1856088;76;21101;-91